createdAt,value
2022-12-06T00:01:14.491Z,7.55
2022-12-06T00:03:43.058Z,6.63
2022-12-06T00:06:13.102Z,7.00
2022-12-06T00:08:40.709Z,7.28
2022-12-06T00:11:10.754Z,7.18
2022-12-06T00:13:38.182Z,6.68
2022-12-06T00:16:08.273Z,6.68
2022-12-06T00:18:36.865Z,7.93
2022-12-06T00:21:12.518Z,5.97
2022-12-06T00:23:42.007Z,6.45
2022-12-06T00:28:38.226Z,7.57
2022-12-06T00:31:08.523Z,7.40
2022-12-06T00:33:36.501Z,8.02
2022-12-06T00:36:10.245Z,6.78
2022-12-06T00:38:37.438Z,6.38
2022-12-06T00:41:13.774Z,6.50
2022-12-06T00:43:41.528Z,6.55
2022-12-06T00:46:10.752Z,6.13
2022-12-06T00:48:37.841Z,7.65
2022-12-06T00:51:05.326Z,6.18
2022-12-06T00:53:32.499Z,6.38
2022-12-06T00:55:59.525Z,6.55
2022-12-06T00:58:26.533Z,6.25
2022-12-06T01:00:53.975Z,6.82
2022-12-06T01:03:21.248Z,6.03
2022-12-06T01:05:50.786Z,6.13
2022-12-06T01:08:19.172Z,6.07
2022-12-06T01:10:55.834Z,6.40
2022-12-06T01:13:22.746Z,5.50
2022-12-06T01:15:50.059Z,5.90
2022-12-06T01:18:16.997Z,5.75
2022-12-06T01:20:43.898Z,5.82
2022-12-06T01:23:10.814Z,6.40
2022-12-06T01:25:37.680Z,6.15
2022-12-06T01:28:04.853Z,5.70
2022-12-06T01:30:32.077Z,5.80
2022-12-06T01:32:58.986Z,5.72
2022-12-06T01:35:25.810Z,5.85
2022-12-06T01:37:52.657Z,5.93
2022-12-06T01:40:19.597Z,5.90
2022-12-06T01:42:46.449Z,6.15
2022-12-06T01:45:13.421Z,5.82
2022-12-06T01:47:43.711Z,6.03
2022-12-06T01:50:19.454Z,5.30
2022-12-06T01:53:00.263Z,5.38
2022-12-06T01:55:30.970Z,5.03
2022-12-06T01:58:02.460Z,5.47
2022-12-06T02:00:29.467Z,4.75
2022-12-06T02:03:00.435Z,4.93
2022-12-06T02:05:28.726Z,4.70
2022-12-06T02:07:56.595Z,4.82
2022-12-06T02:10:23.688Z,4.70
2022-12-06T02:12:55.144Z,4.90
2022-12-06T02:15:30.645Z,4.25
2022-12-06T02:18:10.598Z,4.90
2022-12-06T02:20:46.034Z,4.47
2022-12-06T02:23:18.953Z,5.28
2022-12-06T02:26:15.174Z,4.65
2022-12-06T02:29:15.953Z,4.90
2022-12-06T02:31:59.093Z,4.45
2022-12-06T02:34:40.573Z,5.30
2022-12-06T02:37:22.889Z,5.05
2022-12-06T02:39:49.633Z,5.63
2022-12-06T02:42:26.286Z,4.93
2022-12-06T02:45:01.888Z,4.28
2022-12-06T02:47:34.383Z,4.30
2022-12-06T02:50:06.494Z,5.10
2022-12-06T02:52:36.786Z,4.90
2022-12-06T02:55:07.481Z,4.93
2022-12-06T02:57:53.310Z,4.93
2022-12-06T03:00:42.239Z,5.10
2022-12-06T03:03:47.062Z,5.20
2022-12-06T03:06:27.394Z,5.43
2022-12-06T03:11:21.658Z,4.47
2022-12-06T03:14:22.918Z,4.55
2022-12-06T03:17:10.023Z,4.55
2022-12-06T03:19:39.836Z,4.88
2022-12-06T03:22:18.855Z,4.93
2022-12-06T03:24:47.230Z,4.47
2022-12-06T03:27:17.429Z,5.40
2022-12-06T03:29:52.144Z,5.00
2022-12-06T03:32:23.335Z,5.10
2022-12-06T03:34:52.778Z,5.00
2022-12-06T03:37:23.186Z,4.82
2022-12-06T03:40:01.643Z,4.85
2022-12-06T03:42:32.914Z,4.30
2022-12-06T03:45:01.115Z,4.28
2022-12-06T03:47:42.914Z,4.38
2022-12-06T03:50:23.942Z,3.63
2022-12-06T03:52:52.761Z,3.92
2022-12-06T03:55:19.801Z,4.22
2022-12-06T03:57:46.645Z,4.00
2022-12-06T04:00:14.177Z,3.65
2022-12-06T04:02:41.014Z,4.00
2022-12-06T04:05:08.173Z,4.07
2022-12-06T04:07:35.176Z,4.13
2022-12-06T04:10:04.703Z,4.32
2022-12-06T04:15:19.950Z,3.80
2022-12-06T04:18:05.958Z,4.38
2022-12-06T04:20:53.255Z,3.90
2022-12-06T04:23:21.477Z,3.50
2022-12-06T04:25:48.421Z,3.65
2022-12-06T04:28:34.344Z,3.80
2022-12-06T04:31:22.331Z,3.75
2022-12-06T04:34:09.022Z,3.53
2022-12-06T04:36:56.243Z,3.25
2022-12-06T04:39:23.381Z,3.45
2022-12-06T04:42:09.343Z,3.13
2022-12-06T04:44:36.327Z,3.72
2022-12-06T04:47:03.553Z,3.55
2022-12-06T04:49:30.562Z,3.15
2022-12-06T04:51:57.494Z,3.58
2022-12-06T04:54:24.994Z,3.35
2022-12-06T04:56:52.662Z,3.40
2022-12-06T04:59:20.229Z,3.28
2022-12-06T05:01:47.491Z,3.10
2022-12-06T05:04:14.498Z,3.22
2022-12-06T05:06:41.394Z,3.13
2022-12-06T05:09:08.345Z,3.53
2022-12-06T05:11:35.348Z,2.85
2022-12-06T05:14:02.374Z,2.80
2022-12-06T05:16:29.574Z,3.30
2022-12-06T05:18:56.510Z,3.10
2022-12-06T05:21:24.875Z,3.20
2022-12-06T05:23:55.554Z,3.25
2022-12-06T05:26:27.493Z,2.80
2022-12-06T05:28:54.919Z,3.10
2022-12-06T05:31:22.723Z,3.00
2022-12-06T05:33:50.562Z,2.83
2022-12-06T05:36:23.571Z,2.47
2022-12-06T05:38:52.045Z,2.70
2022-12-06T05:41:22.943Z,2.33
2022-12-06T05:43:50.085Z,2.80
2022-12-06T05:46:17.282Z,2.78
2022-12-06T05:48:44.857Z,2.83
2022-12-06T05:51:11.876Z,2.70
2022-12-06T05:53:39.298Z,2.95
2022-12-06T05:56:09.078Z,2.72
2022-12-06T05:58:36.408Z,3.00
2022-12-06T06:01:05.356Z,3.42
2022-12-06T06:03:32.349Z,3.67
2022-12-06T06:06:01.021Z,2.47
2022-12-06T06:08:31.401Z,3.40
2022-12-06T06:10:58.872Z,2.50
2022-12-06T06:13:25.692Z,3.33
2022-12-06T06:15:52.576Z,2.80
2022-12-06T06:18:20.200Z,3.05
2022-12-06T06:20:51.292Z,2.95
2022-12-06T06:23:18.958Z,2.92
2022-12-06T06:25:46.415Z,3.20
2022-12-06T06:28:13.403Z,3.67
2022-12-06T06:30:40.285Z,3.03
2022-12-06T06:33:07.212Z,2.80
2022-12-06T06:35:34.141Z,3.83
2022-12-06T06:38:01.362Z,3.47
2022-12-06T06:40:28.827Z,4.40
2022-12-06T06:42:56.184Z,4.20
2022-12-06T06:45:28.732Z,4.00
2022-12-06T06:47:56.176Z,4.80
2022-12-06T06:50:23.080Z,3.80
2022-12-06T06:52:49.963Z,4.90
2022-12-06T06:55:16.903Z,4.78
2022-12-06T06:57:44.332Z,4.90
2022-12-06T07:00:12.507Z,4.78
2022-12-06T07:02:39.589Z,3.42
2022-12-06T07:05:07.319Z,4.43
2022-12-06T07:07:34.219Z,3.85
2022-12-06T07:10:01.294Z,4.22
2022-12-06T07:12:28.243Z,3.00
2022-12-06T07:14:55.171Z,3.75
2022-12-06T07:17:22.250Z,4.55
2022-12-06T07:19:49.098Z,3.92
2022-12-06T07:22:15.927Z,4.18
2022-12-06T07:24:46.601Z,4.25
2022-12-06T07:27:16.076Z,4.30
2022-12-06T07:29:42.945Z,3.95
2022-12-06T07:32:09.776Z,3.40
2022-12-06T07:34:36.615Z,4.30
2022-12-06T07:37:05.328Z,3.35
2022-12-06T07:39:32.611Z,3.97
2022-12-06T07:42:17.897Z,3.33
2022-12-06T07:45:04.538Z,3.40
2022-12-06T07:47:49.611Z,4.15
2022-12-06T07:50:19.241Z,3.53
2022-12-06T07:55:14.824Z,4.13
2022-12-06T07:57:43.964Z,3.75
2022-12-06T08:00:14.399Z,3.78
2022-12-06T08:02:41.773Z,4.18
2022-12-06T08:05:09.000Z,3.83
2022-12-06T08:07:36.008Z,5.88
2022-12-06T08:10:03.430Z,5.63
2022-12-06T08:12:34.668Z,5.00
2022-12-06T08:15:01.687Z,4.70
2022-12-06T08:17:32.831Z,5.10
2022-12-06T08:20:00.134Z,5.20
2022-12-06T08:22:28.246Z,4.85
2022-12-06T08:24:55.418Z,4.63
2022-12-06T08:27:22.280Z,3.90
2022-12-06T08:29:49.086Z,4.72
2022-12-06T08:32:16.000Z,6.03
2022-12-06T08:34:43.984Z,5.03
2022-12-06T08:37:12.007Z,5.22
2022-12-06T08:39:38.854Z,4.70
2022-12-06T08:42:07.742Z,4.82
2022-12-06T08:44:35.061Z,4.30
2022-12-06T08:47:02.411Z,5.25
2022-12-06T08:49:30.621Z,4.43
2022-12-06T08:51:58.949Z,4.70
2022-12-06T08:54:26.411Z,3.97
2022-12-06T08:56:53.914Z,3.95
2022-12-06T08:59:21.545Z,3.97
2022-12-06T09:01:48.650Z,3.90
2022-12-06T09:04:15.935Z,4.53
2022-12-06T09:06:45.337Z,4.80
2022-12-06T09:09:15.007Z,5.55
2022-12-06T09:14:21.072Z,5.75
2022-12-06T09:16:49.730Z,7.10
2022-12-06T09:19:16.662Z,7.07
2022-12-06T09:21:44.473Z,6.43
2022-12-06T09:24:16.103Z,6.70
2022-12-06T09:26:43.289Z,6.50
2022-12-06T09:29:10.565Z,6.55
2022-12-06T09:31:40.300Z,6.28
2022-12-06T09:34:08.977Z,5.65
2022-12-06T09:36:40.490Z,5.90
2022-12-06T09:39:16.184Z,6.40
2022-12-06T09:42:20.772Z,5.53
2022-12-06T09:44:50.452Z,5.28
2022-12-06T09:47:42.148Z,5.97
2022-12-06T09:50:41.080Z,6.22
2022-12-06T09:53:33.108Z,5.65
2022-12-06T09:56:09.671Z,5.32
2022-12-06T09:58:45.625Z,5.15
2022-12-06T10:01:41.735Z,4.70
2022-12-06T10:04:33.211Z,5.45
2022-12-06T10:07:06.164Z,5.72
2022-12-06T10:10:01.442Z,5.38
2022-12-06T10:13:02.743Z,4.57
2022-12-06T10:15:38.668Z,4.40
2022-12-06T10:18:14.470Z,4.85
2022-12-06T10:21:02.011Z,5.40
2022-12-06T10:24:01.814Z,4.80
2022-12-06T10:26:29.290Z,4.90
2022-12-06T10:29:29.037Z,4.88
2022-12-06T10:32:12.529Z,4.55
2022-12-06T10:35:05.477Z,4.95
2022-12-06T10:37:48.170Z,4.68
2022-12-06T10:40:30.800Z,5.25
2022-12-06T10:43:24.983Z,4.18
2022-12-06T10:46:40.197Z,4.35
2022-12-06T10:49:27.936Z,3.95
2022-12-06T10:52:04.363Z,3.90
2022-12-06T10:54:43.715Z,4.65
2022-12-06T10:57:30.295Z,4.10
2022-12-06T11:00:16.386Z,3.85
2022-12-06T11:03:20.310Z,4.25
2022-12-06T11:06:12.616Z,3.85
2022-12-06T11:08:41.677Z,3.75
2022-12-06T11:11:18.455Z,3.67
2022-12-06T11:13:59.466Z,3.42
2022-12-06T11:16:47.906Z,3.22
2022-12-06T11:19:34.170Z,3.20
2022-12-06T11:22:22.170Z,3.17
2022-12-06T11:24:58.964Z,3.33
2022-12-06T11:27:42.350Z,3.25
2022-12-06T11:30:20.312Z,3.00
2022-12-06T11:32:49.970Z,3.10
2022-12-06T11:35:26.465Z,3.17
2022-12-06T11:37:59.406Z,2.88
2022-12-06T11:40:36.659Z,3.40
2022-12-06T11:43:08.500Z,3.00
2022-12-06T11:45:41.102Z,3.00
2022-12-06T11:48:21.493Z,3.20
2022-12-06T11:53:16.175Z,3.00
2022-12-06T11:55:46.706Z,2.78
2022-12-06T11:58:30.601Z,2.60
2022-12-06T12:01:02.170Z,2.60
2022-12-06T12:03:40.144Z,3.20
2022-12-06T12:06:21.866Z,3.35
2022-12-06T12:09:05.930Z,3.58
2022-12-06T12:11:36.413Z,3.08
2022-12-06T12:14:07.761Z,2.75
2022-12-06T12:16:46.511Z,3.30
2022-12-06T12:19:40.049Z,3.20
2022-12-06T12:22:40.887Z,2.83
2022-12-06T12:25:23.327Z,2.78
2022-12-06T12:27:53.016Z,2.70
2022-12-06T12:30:36.794Z,2.83
2022-12-06T12:33:06.824Z,2.67
2022-12-06T12:35:46.163Z,3.08
2022-12-06T12:38:37.201Z,3.35
2022-12-06T12:41:16.597Z,2.60
2022-12-06T12:44:07.774Z,2.92
2022-12-06T12:46:53.695Z,3.03
2022-12-06T12:49:39.199Z,3.08
2022-12-06T12:52:42.326Z,3.25
2022-12-06T12:55:31.094Z,2.85
2022-12-06T12:58:01.575Z,2.53
2022-12-06T13:00:37.470Z,2.67
2022-12-06T13:03:28.506Z,3.08
2022-12-06T13:05:58.600Z,3.05
2022-12-06T13:08:37.500Z,3.05
2022-12-06T13:11:05.418Z,2.80
2022-12-06T13:13:45.117Z,2.60
2022-12-06T13:16:31.031Z,2.47
2022-12-06T13:18:58.938Z,2.60
2022-12-06T13:21:40.094Z,3.17
2022-12-06T13:24:10.056Z,2.60
2022-12-06T13:26:42.310Z,2.58
2022-12-06T13:29:18.117Z,2.60
2022-12-06T13:31:46.151Z,3.10
2022-12-06T13:34:37.822Z,2.83
2022-12-06T13:37:26.675Z,3.67
2022-12-06T13:39:53.598Z,3.30
2022-12-06T13:42:23.869Z,3.28
2022-12-06T13:44:50.644Z,2.75
2022-12-06T13:47:29.681Z,3.30
2022-12-06T13:50:02.366Z,3.20
2022-12-06T13:52:48.106Z,3.40
2022-12-06T13:55:24.392Z,2.63
2022-12-06T13:58:17.198Z,2.88
2022-12-06T14:00:44.170Z,2.90
2022-12-06T14:03:16.950Z,3.10
2022-12-06T14:06:12.260Z,3.00
2022-12-06T14:09:09.697Z,3.03
2022-12-06T14:11:39.944Z,3.78
2022-12-06T14:14:22.051Z,3.35
2022-12-06T14:16:52.307Z,3.53
2022-12-06T14:19:20.909Z,3.70
2022-12-06T14:21:58.158Z,3.55
2022-12-06T14:24:37.384Z,3.40
2022-12-06T14:27:17.138Z,3.63
2022-12-06T14:29:58.298Z,3.63
2022-12-06T14:32:32.990Z,3.75
2022-12-06T14:35:07.126Z,3.15
2022-12-06T14:37:34.313Z,4.00
2022-12-06T14:40:16.665Z,3.78
2022-12-06T14:43:01.564Z,3.25
2022-12-06T14:47:58.592Z,3.65
2022-12-06T14:50:59.707Z,3.75
2022-12-06T14:53:38.143Z,3.67
2022-12-06T14:56:30.753Z,3.78
2022-12-06T14:59:00.978Z,3.58
2022-12-06T15:01:30.079Z,4.03
2022-12-06T15:04:09.402Z,3.67
2022-12-06T15:06:37.951Z,3.78
2022-12-06T15:09:15.186Z,3.85
2022-12-06T15:12:02.139Z,4.13
2022-12-06T15:14:49.741Z,3.90
2022-12-06T15:17:19.019Z,3.75
2022-12-06T15:19:48.857Z,3.80
2022-12-06T15:22:25.534Z,3.80
2022-12-06T15:24:57.429Z,4.45
2022-12-06T15:27:27.086Z,4.50
2022-12-06T15:29:54.316Z,4.65
2022-12-06T15:32:24.645Z,4.55
2022-12-06T15:34:51.708Z,5.00
2022-12-06T15:40:06.063Z,5.03
2022-12-06T15:42:33.079Z,4.13
2022-12-06T15:45:00.111Z,4.15
2022-12-06T15:47:27.762Z,3.97
2022-12-06T15:49:57.988Z,3.67
2022-12-06T15:52:24.966Z,3.65
2022-12-06T15:54:52.256Z,4.20
2022-12-06T15:57:19.179Z,4.00
2022-12-06T15:59:45.977Z,3.90
2022-12-06T16:02:18.248Z,3.85
2022-12-06T16:04:48.320Z,4.20
2022-12-06T16:07:18.844Z,4.13
2022-12-06T16:09:46.543Z,3.60
2022-12-06T16:12:13.478Z,3.97
2022-12-06T16:14:40.311Z,3.35
2022-12-06T16:17:07.174Z,3.80
2022-12-06T16:19:52.424Z,4.00
2022-12-06T16:22:39.214Z,3.90
2022-12-06T16:25:06.475Z,4.45
2022-12-06T16:27:33.418Z,4.15
2022-12-06T16:30:00.265Z,3.72
2022-12-06T16:32:27.328Z,4.93
2022-12-06T16:34:54.087Z,4.07
2022-12-06T16:37:20.890Z,4.68
2022-12-06T16:39:47.916Z,4.10
2022-12-06T16:42:14.762Z,4.72
2022-12-06T16:44:50.941Z,4.50
2022-12-06T16:47:18.064Z,4.50
2022-12-06T16:49:46.693Z,5.20
2022-12-06T16:54:42.305Z,4.32
2022-12-06T16:57:13.322Z,4.75
2022-12-06T16:59:41.974Z,4.97
2022-12-06T17:02:30.659Z,5.38
2022-12-06T17:05:00.916Z,4.80
2022-12-06T17:07:28.737Z,5.60
2022-12-06T17:09:55.635Z,5.82
2022-12-06T17:12:22.838Z,6.35
2022-12-06T17:14:49.895Z,6.63
2022-12-06T17:17:20.291Z,7.22
2022-12-06T17:19:47.659Z,7.28
2022-12-06T17:22:16.416Z,7.28
2022-12-06T17:24:43.726Z,7.75
2022-12-06T17:27:13.836Z,7.03
2022-12-06T17:29:41.725Z,7.65
2022-12-06T17:32:08.584Z,6.63
2022-12-06T17:34:36.281Z,8.13
2022-12-06T17:37:03.207Z,6.72
2022-12-06T17:39:30.229Z,8.57
2022-12-06T17:42:15.543Z,7.55
2022-12-06T17:44:42.391Z,8.40
2022-12-06T17:47:09.241Z,9.38
2022-12-06T17:49:37.076Z,10.10
2022-12-06T17:52:04.495Z,7.57
2022-12-06T17:54:31.412Z,11.05
2022-12-06T17:56:58.344Z,11.65
2022-12-06T17:59:28.700Z,12.60
2022-12-06T18:02:19.104Z,9.75
2022-12-06T18:04:47.415Z,8.00
2022-12-06T18:07:14.992Z,14.68
2022-12-06T18:09:41.907Z,13.10
2022-12-06T18:12:10.462Z,13.38
2022-12-06T18:14:37.468Z,13.57
2022-12-06T18:17:04.894Z,13.45
2022-12-06T18:19:32.588Z,16.85
2022-12-06T18:22:02.475Z,17.00
2022-12-06T18:24:35.289Z,15.07
2022-12-06T18:27:03.280Z,17.92
2022-12-06T18:29:30.351Z,17.58
2022-12-06T18:31:57.396Z,18.65
2022-12-06T18:34:24.759Z,19.60
2022-12-06T18:36:51.892Z,22.00
2022-12-06T18:39:26.217Z,23.90
2022-12-06T18:41:54.403Z,22.40
2022-12-06T18:44:21.788Z,25.63
2022-12-06T18:46:48.621Z,19.50
2022-12-06T18:49:15.558Z,24.35
2022-12-06T18:51:42.606Z,27.63
2022-12-06T18:54:11.158Z,25.10
2022-12-06T18:56:38.895Z,27.02
2022-12-06T18:59:08.626Z,28.00
2022-12-06T19:01:38.660Z,32.08
2022-12-06T19:04:07.550Z,28.98
2022-12-06T19:06:36.428Z,30.40
2022-12-06T19:09:07.211Z,29.27
2022-12-06T19:11:37.503Z,28.50
2022-12-06T19:14:05.129Z,40.42
2022-12-06T19:16:39.668Z,37.17
2022-12-06T19:19:15.555Z,34.42
2022-12-06T19:21:44.861Z,32.85
2022-12-06T19:24:13.087Z,34.15
2022-12-06T19:26:40.295Z,41.72
2022-12-06T19:29:07.310Z,40.58
2022-12-06T19:31:34.213Z,27.27
2022-12-06T19:34:01.184Z,33.90
2022-12-06T19:36:29.569Z,31.20
2022-12-06T19:39:02.772Z,34.90
2022-12-06T19:41:29.941Z,32.25
2022-12-06T19:44:15.349Z,36.28
2022-12-06T19:46:43.811Z,32.25
2022-12-06T19:49:12.343Z,31.67
2022-12-06T19:51:43.882Z,31.17
2022-12-06T19:54:14.018Z,29.73
2022-12-06T19:56:40.955Z,21.98
2022-12-06T19:59:17.076Z,28.50
2022-12-06T20:01:46.200Z,21.63
2022-12-06T20:04:19.149Z,24.75
2022-12-06T20:06:46.187Z,24.65
2022-12-06T20:09:13.616Z,17.02
2022-12-06T20:11:59.584Z,22.65
2022-12-06T20:14:27.137Z,18.48
2022-12-06T20:16:54.527Z,19.40
2022-12-06T20:19:22.134Z,16.70
2022-12-06T20:21:49.302Z,13.85
2022-12-06T20:24:19.401Z,16.33
2022-12-06T20:26:49.336Z,16.50
2022-12-06T20:29:20.358Z,14.88
2022-12-06T20:31:50.094Z,13.75
2022-12-06T20:34:17.803Z,12.82
2022-12-06T20:36:45.207Z,12.43
2022-12-06T20:39:19.510Z,13.32
2022-12-06T20:41:47.360Z,8.90
2022-12-06T20:44:14.861Z,9.73
2022-12-06T20:46:41.799Z,9.32
2022-12-06T20:49:09.551Z,9.88
2022-12-06T20:51:36.999Z,11.00
2022-12-06T20:54:06.158Z,10.75
2022-12-06T20:56:36.020Z,10.68
2022-12-06T20:59:04.813Z,10.70
2022-12-06T21:01:37.511Z,9.80
2022-12-06T21:04:04.652Z,12.07
2022-12-06T21:06:31.740Z,11.77
2022-12-06T21:08:58.652Z,11.32
2022-12-06T21:11:26.177Z,13.30
2022-12-06T21:13:54.993Z,9.52
2022-12-06T21:16:27.236Z,9.50
2022-12-06T21:18:56.243Z,10.35
2022-12-06T21:21:29.732Z,9.85
2022-12-06T21:23:59.963Z,13.95
2022-12-06T21:26:27.587Z,12.18
2022-12-06T21:28:54.889Z,12.00
2022-12-06T21:31:34.335Z,13.70
2022-12-06T21:34:01.898Z,14.57
2022-12-06T21:36:28.739Z,15.40
2022-12-06T21:38:55.967Z,14.13
2022-12-06T21:41:23.176Z,17.58
2022-12-06T21:43:50.575Z,21.17
2022-12-06T21:46:20.724Z,16.67
2022-12-06T21:48:55.942Z,17.02
2022-12-06T21:51:24.476Z,16.52
2022-12-06T21:53:52.170Z,16.52
2022-12-06T21:56:22.410Z,16.25
2022-12-06T21:58:50.080Z,12.90
2022-12-06T22:01:23.908Z,14.93
2022-12-06T22:03:53.210Z,15.63
2022-12-06T22:06:20.498Z,20.10
2022-12-06T22:08:48.472Z,20.73
2022-12-06T22:11:18.392Z,23.55
2022-12-06T22:13:46.217Z,22.08
2022-12-06T22:16:14.279Z,20.85
2022-12-06T22:18:45.614Z,24.02
2022-12-06T22:21:16.647Z,22.23
2022-12-06T22:23:44.328Z,22.10
2022-12-06T22:26:15.730Z,21.13
2022-12-06T22:28:42.818Z,22.65
2022-12-06T22:31:13.995Z,18.73
2022-12-06T22:33:41.593Z,19.77
2022-12-06T22:36:09.379Z,20.73
2022-12-06T22:38:36.693Z,23.35
2022-12-06T22:41:04.199Z,20.17
2022-12-06T22:43:31.698Z,19.00
2022-12-06T22:46:13.875Z,22.70
2022-12-06T22:48:42.036Z,20.33
2022-12-06T22:51:36.779Z,19.33
2022-12-06T22:54:11.067Z,15.82
2022-12-06T22:56:48.137Z,14.57
2022-12-06T22:59:17.117Z,16.15
2022-12-06T23:01:46.441Z,14.10
2022-12-06T23:04:13.401Z,12.43
2022-12-06T23:06:40.403Z,11.18
2022-12-06T23:09:08.188Z,12.77
2022-12-06T23:11:36.685Z,12.80
2022-12-06T23:14:04.540Z,12.30
2022-12-06T23:16:32.159Z,11.88
2022-12-06T23:19:00.837Z,9.73
2022-12-06T23:21:33.199Z,10.90
2022-12-06T23:24:02.961Z,10.25
2022-12-06T23:26:33.325Z,10.05
2022-12-06T23:29:00.905Z,10.00
2022-12-06T23:31:32.655Z,9.38
2022-12-06T23:34:08.509Z,9.48
2022-12-06T23:36:35.845Z,9.65
2022-12-06T23:39:03.864Z,9.10
2022-12-06T23:41:35.422Z,8.70
2022-12-06T23:44:02.315Z,7.30
2022-12-06T23:46:34.974Z,7.70
2022-12-06T23:49:02.788Z,7.13
2022-12-06T23:51:34.151Z,7.18
2022-12-06T23:54:02.763Z,6.60
2022-12-06T23:56:32.461Z,7.55
2022-12-06T23:59:00.221Z,6.95
